Time;durP1;ratioP1;P1;durP2;ratioP2;P2;SDS_P1;SDS_P2;PMS_P1;PMS_P2;Temp;Humidity;BMP_temperature;BMP_pressure;BME280_temperature;BME280_humidity;BME280_pressure;Samples;Min_cycle;Max_cycle;Signal;HPM_P1;HPM_P2
2022/06/19 00:02:21;;;;;;;4.80;3.40;;;16.30;99.90;;;;;;5034217;28;20653;-81
2022/06/19 00:04:53;;;;;;;5.60;3.28;;;16.30;99.90;;;;;;5053839;28;20076;-81
2022/06/19 00:07:22;;;;;;;3.17;2.28;;;16.20;99.90;;;;;;5052792;28;20853;-81
2022/06/19 00:09:51;;;;;;;3.53;3.25;;;16.20;99.90;;;;;;5035734;28;20574;-81
2022/06/19 00:12:20;;;;;;;5.97;2.33;;;16.20;99.90;;;;;;5018899;28;20045;-81
2022/06/19 00:14:48;;;;;;;7.95;2.28;;;16.10;99.90;;;;;;5053205;28;20037;-81
2022/06/19 00:17:17;;;;;;;5.00;3.35;;;16.00;99.90;;;;;;5035833;28;20053;-81
2022/06/19 00:19:47;;;;;;;5.00;3.03;;;16.10;99.90;;;;;;5018126;28;20391;-80
2022/06/19 00:22:15;;;;;;;2.83;2.63;;;16.20;99.90;;;;;;5018575;28;20029;-80
2022/06/19 00:24:44;;;;;;;2.65;2.45;;;16.10;99.90;;;;;;5035747;28;20051;-78
2022/06/19 00:27:13;;;;;;;3.15;2.28;;;15.90;99.90;;;;;;5052047;28;20044;-78
2022/06/19 00:29:42;;;;;;;5.32;2.50;;;15.90;99.90;;;;;;5018839;28;20053;-78
2022/06/19 00:32:10;;;;;;;3.83;3.53;;;15.90;99.90;;;;;;5018392;28;20048;-78
2022/06/19 00:34:40;;;;;;;8.93;3.08;;;15.90;99.90;;;;;;5034969;28;20037;-78
2022/06/19 00:37:09;;;;;;;7.43;2.65;;;16.00;99.90;;;;;;5018718;28;20045;-78
2022/06/19 00:39:42;;;;;;;2.70;2.60;;;16.10;99.90;;;;;;5034875;28;20057;-79
2022/06/19 00:42:13;;;;;;;3.92;2.63;;;16.50;99.90;;;;;;5052207;28;20052;-78
2022/06/19 00:44:42;;;;;;;3.25;2.65;;;16.70;99.90;;;;;;5053003;28;20048;-78
2022/06/19 00:47:19;;;;;;;2.85;2.65;;;16.90;99.90;;;;;;5034977;28;20048;-78
2022/06/19 00:49:56;;;;;;;2.53;2.33;;;17.00;99.90;;;;;;5052710;28;20048;-78
2022/06/19 00:52:35;;;;;;;4.50;2.92;;;16.50;99.90;;;;;;5050135;28;20498;-78
2022/06/19 00:55:17;;;;;;;7.80;3.45;;;16.30;99.90;;;;;;5034431;28;20041;-78
2022/06/19 00:57:57;;;;;;;3.28;3.08;;;16.10;99.90;;;;;;5051798;28;20056;-78
2022/06/19 01:00:27;;;;;;;3.47;3.08;;;15.90;99.90;;;;;;5049869;28;20045;-78
2022/06/19 01:03:05;;;;;;;4.63;2.55;;;15.90;99.90;;;;;;5052214;28;20037;-78
2022/06/19 01:05:36;;;;;;;3.35;3.15;;;15.80;99.90;;;;;;5052322;28;20055;-78
2022/06/19 01:08:05;;;;;;;2.20;2.00;;;15.60;99.90;;;;;;5034239;28;20048;-79
2022/06/19 01:10:40;;;;;;;7.75;3.17;;;15.50;99.90;;;;;;5017245;28;20037;-79
2022/06/19 01:13:38;;;;;;;6.30;3.33;;;15.50;99.90;;;;;;5033481;28;20061;-78
2022/06/19 01:17:39;;;;;;;3.63;2.88;;;15.40;99.90;;;;;;5050313;28;20040;-79
2022/06/19 01:22:25;;;;;;;6.55;3.47;;;15.50;99.90;;;;;;5032596;28;20040;-79
2022/06/19 01:27:07;;;;;;;5.40;2.70;;;16.10;99.90;;;;;;5042834;28;20048;-79
2022/06/19 01:30:54;;;;;;;8.23;4.32;;;17.00;99.90;;;;;;5030518;28;20036;-79
2022/06/19 01:33:55;;;;;;;8.32;5.53;;;17.20;99.90;;;;;;5029285;28;20053;-79
2022/06/19 01:37:45;;;;;;;4.00;2.20;;;17.00;99.90;;;;;;5028951;28;20064;-78
2022/06/19 01:50:05;;;;;;;3.38;3.08;;;17.20;99.90;;;;;;5006219;28;20130;-78
2022/06/19 01:53:55;;;;;;;3.75;2.45;;;16.50;99.90;;;;;;5029580;28;20049;-78
2022/06/19 01:58:10;;;;;;;2.67;2.47;;;16.20;99.90;;;;;;5029068;28;20041;-78
2022/06/19 02:01:18;;;;;;;3.13;2.85;;;15.80;99.90;;;;;;5024444;28;20410;-78
2022/06/19 02:04:00;;;;;;;4.38;3.10;;;15.50;99.90;;;;;;5047412;28;20513;-78
2022/06/19 02:06:37;;;;;;;3.38;3.08;;;15.50;99.90;;;;;;5059178;28;20437;-79
2022/06/19 02:09:06;;;;;;;5.65;3.15;;;15.50;99.90;;;;;;5051361;28;20041;-78
2022/06/19 02:11:35;;;;;;;3.90;2.88;;;15.40;99.90;;;;;;5050531;28;20041;-78
2022/06/19 02:14:07;;;;;;;2.97;2.78;;;15.30;99.90;;;;;;5050533;28;20040;-79
2022/06/19 02:17:43;;;;;;;6.65;3.33;;;15.30;99.90;;;;;;5016910;28;20044;-78
2022/06/19 02:21:47;;;;;;;7.18;4.88;;;15.30;99.90;;;;;;5029174;28;20048;-78
2022/06/19 02:24:19;;;;;;;5.15;3.35;;;15.50;99.90;;;;;;5032485;28;20041;-78
2022/06/19 02:26:49;;;;;;;4.32;3.95;;;15.60;99.90;;;;;;5031747;28;20052;-78
2022/06/19 02:29:19;;;;;;;3.70;3.40;;;15.70;99.90;;;;;;5016479;28;20060;-78
2022/06/19 02:31:51;;;;;;;8.30;4.28;;;15.60;99.90;;;;;;5033003;28;20052;-78
2022/06/19 02:34:33;;;;;;;5.32;3.63;;;15.40;99.90;;;;;;5050578;28;20048;-78
2022/06/19 02:37:06;;;;;;;4.35;3.60;;;15.30;99.90;;;;;;5050598;28;20482;-78
2022/06/19 02:40:10;;;;;;;3.38;3.17;;;15.20;99.90;;;;;;5032810;28;20038;-78
2022/06/19 02:42:43;;;;;;;5.90;4.97;;;15.20;99.90;;;;;;5020666;28;20048;-78
2022/06/19 02:45:13;;;;;;;6.60;4.78;;;15.30;99.90;;;;;;5023454;28;20041;-78
2022/06/19 02:47:42;;;;;;;6.53;4.88;;;15.40;99.90;;;;;;5012000;28;20049;-78
2022/06/19 02:50:42;;;;;;;3.13;2.85;;;15.40;99.90;;;;;;5004719;28;20060;-78
2022/06/19 02:53:10;;;;;;;3.60;2.75;;;15.40;99.90;;;;;;5012675;28;20523;-78
2022/06/19 02:55:38;;;;;;;10.90;5.25;;;15.40;99.90;;;;;;5030284;28;20107;-78
2022/06/19 02:58:07;;;;;;;8.07;3.35;;;15.40;99.90;;;;;;5029212;28;20057;-78
2022/06/19 03:00:35;;;;;;;4.97;3.05;;;15.40;99.90;;;;;;5030560;28;20049;-78
2022/06/19 03:03:13;;;;;;;4.00;3.70;;;15.30;99.90;;;;;;4996180;28;20511;-78
2022/06/19 03:05:41;;;;;;;6.75;3.45;;;15.10;99.90;;;;;;5014010;28;20037;-78
2022/06/19 03:08:09;;;;;;;7.13;3.97;;;14.90;99.90;;;;;;5014941;28;20053;-78
2022/06/19 03:10:37;;;;;;;8.32;3.45;;;14.70;99.90;;;;;;5031572;28;20044;-78
2022/06/19 03:13:05;;;;;;;4.03;3.47;;;14.60;99.90;;;;;;5049773;28;20045;-77
2022/06/19 03:15:33;;;;;;;5.15;3.40;;;14.60;99.90;;;;;;5032272;28;20881;-78
2022/06/19 03:18:01;;;;;;;4.35;3.30;;;14.60;99.90;;;;;;5049738;28;20037;-78
2022/06/19 03:21:00;;;;;;;5.88;2.88;;;14.70;99.90;;;;;;5050292;28;20052;-78
2022/06/19 03:35:17;;;;;;;4.40;3.40;;;14.30;99.90;;;;;;5010244;28;20089;-78
2022/06/19 03:39:40;;;;;;;3.97;3.67;;;14.00;99.90;;;;;;5015820;28;20041;-78
2022/06/19 03:52:17;;;;;;;6.70;4.35;;;14.40;99.90;;;;;;5015801;28;20709;-78
2022/06/19 03:55:55;;;;;;;4.47;4.05;;;14.50;99.90;;;;;;5015966;28;20026;-78
2022/06/19 04:03:20;;;;;;;9.25;4.05;;;14.70;99.90;;;;;;4998391;28;20060;-78
2022/06/19 04:11:35;;;;;;;15.43;7.07;;;14.90;99.90;;;;;;5033474;28;20033;-78
2022/06/19 04:14:04;;;;;;;7.97;4.00;;;14.80;99.90;;;;;;5035562;28;20057;-78
2022/06/19 04:16:33;;;;;;;7.07;4.32;;;14.70;99.90;;;;;;5036362;28;20049;-78
2022/06/19 04:19:03;;;;;;;6.75;4.18;;;14.70;99.90;;;;;;5035657;28;20037;-78
2022/06/19 04:21:33;;;;;;;6.93;4.50;;;14.80;99.90;;;;;;5018771;28;20046;-78
2022/06/19 04:29:15;;;;;;;9.55;3.25;;;14.80;99.90;;;;;;5018421;28;20045;-78
2022/06/19 04:31:43;;;;;;;4.25;3.85;;;15.10;99.90;;;;;;5001814;28;20046;-78
2022/06/19 04:34:11;;;;;;;6.10;3.85;;;15.20;99.90;;;;;;5035800;28;20471;-78
2022/06/19 04:40:45;;;;;;;6.32;3.83;;;15.50;99.90;;;;;;5013783;28;20066;-79
2022/06/19 04:43:12;;;;;;;4.30;3.83;;;15.90;99.90;;;;;;5035138;28;20080;-79
2022/06/19 04:45:40;;;;;;;8.65;3.33;;;16.20;99.90;;;;;;5018459;28;20079;-79
2022/06/19 04:48:13;;;;;;;5.25;4.75;;;16.40;99.90;;;;;;4998188;28;20049;-79
2022/06/19 04:50:41;;;;;;;3.70;3.40;;;16.50;99.90;;;;;;5014973;28;20399;-79
2022/06/19 04:53:09;;;;;;;5.65;3.85;;;16.60;99.90;;;;;;5015472;28;20061;-79
2022/06/19 04:55:37;;;;;;;6.03;2.97;;;16.60;99.90;;;;;;4998330;28;20570;-79
2022/06/19 04:58:05;;;;;;;8.80;3.47;;;16.70;99.90;;;;;;5031618;28;20415;-79
2022/06/19 05:00:33;;;;;;;7.15;3.10;;;16.70;99.90;;;;;;5032791;28;20049;-79
2022/06/19 05:03:01;;;;;;;10.82;4.57;;;16.80;99.90;;;;;;4998204;28;20048;-80
2022/06/19 05:05:29;;;;;;;5.53;4.25;;;17.00;99.90;;;;;;5032893;28;20498;-79
2022/06/19 05:07:56;;;;;;;7.72;3.55;;;17.20;99.90;;;;;;5032061;28;20041;-79
2022/06/19 05:10:24;;;;;;;8.07;4.00;;;17.40;99.90;;;;;;5032185;28;20479;-79
2022/06/19 05:12:56;;;;;;;8.77;3.65;;;17.70;99.90;;;;;;4998082;28;20494;-79
2022/06/19 05:15:41;;;;;;;5.78;4.38;;;17.90;99.90;;;;;;4997977;28;20488;-79
2022/06/19 05:18:10;;;;;;;11.77;6.18;;;18.20;99.90;;;;;;5031795;28;20252;-79
2022/06/19 05:25:57;;;;;;;13.90;4.20;;;18.40;99.90;;;;;;5024241;28;20041;-80
2022/06/19 05:28:26;;;;;;;6.97;4.72;;;18.70;99.90;;;;;;5017793;28;20042;-80
2022/06/19 05:30:53;;;;;;;7.55;3.85;;;18.90;99.90;;;;;;4994746;28;20054;-80
2022/06/19 05:33:21;;;;;;;14.85;5.00;;;19.10;99.90;;;;;;4979025;28;20549;-79
2022/06/19 05:35:49;;;;;;;11.05;4.72;;;19.30;99.90;;;;;;5010813;28;20050;-79
2022/06/19 05:38:48;;;;;;;16.00;5.32;;;19.50;99.90;;;;;;5011798;28;20045;-79
2022/06/19 05:42:33;;;;;;;9.10;4.05;;;19.60;99.90;;;;;;4987180;28;20506;-80
2022/06/19 05:46:32;;;;;;;10.73;4.82;;;19.70;99.90;;;;;;5009689;28;20050;-80
2022/06/19 05:49:21;;;;;;;9.80;3.85;;;19.90;99.90;;;;;;4998073;28;20042;-80
2022/06/19 05:51:50;;;;;;;12.18;4.22;;;20.00;99.90;;;;;;5011760;28;20042;-79
2022/06/19 05:54:19;;;;;;;11.57;5.38;;;20.10;99.90;;;;;;5026726;28;20046;-79
2022/06/19 05:56:48;;;;;;;8.05;2.88;;;20.20;99.90;;;;;;4993830;28;20522;-80
2022/06/19 05:59:16;;;;;;;14.40;5.70;;;20.30;99.90;;;;;;5009686;28;20049;-80
2022/06/19 06:01:45;;;;;;;9.57;5.03;;;20.50;99.90;;;;;;5010523;28;20046;-80
2022/06/19 06:04:13;;;;;;;13.93;4.80;;;20.50;99.90;;;;;;5011509;28;20045;-79
2022/06/19 06:06:42;;;;;;;10.18;4.68;;;20.50;99.90;;;;;;5006277;28;20052;-80
2022/06/19 06:09:14;;;;;;;24.00;6.60;;;20.60;99.90;;;;;;5013812;28;20049;-80
2022/06/19 06:11:42;;;;;;;9.38;6.05;;;20.70;99.90;;;;;;5012381;28;20041;-79
2022/06/19 06:14:11;;;;;;;18.77;4.95;;;20.80;99.90;;;;;;5013376;28;23153;-79
2022/06/19 06:16:40;;;;;;;12.60;4.40;;;20.80;99.90;;;;;;5031471;28;20487;-80
2022/06/19 06:19:08;;;;;;;8.27;4.88;;;20.90;99.90;;;;;;5030396;28;20638;-79
2022/06/19 06:21:37;;;;;;;7.50;3.88;;;21.00;99.90;;;;;;5025132;28;20048;-80
2022/06/19 06:24:05;;;;;;;8.32;5.07;;;21.00;99.90;;;;;;5030570;28;20290;-79
2022/06/19 06:26:34;;;;;;;11.75;4.22;;;21.00;99.90;;;;;;5012629;28;20041;-84
2022/06/19 06:29:03;;;;;;;11.43;5.20;;;21.10;99.90;;;;;;5006418;28;20049;-80
2022/06/19 06:31:31;;;;;;;5.22;4.70;;;21.30;99.90;;;;;;5030359;28;20384;-81
2022/06/19 06:34:00;;;;;;;12.82;4.97;;;21.40;99.90;;;;;;5013182;28;20418;-81
2022/06/19 06:36:30;;;;;;;12.32;4.20;;;21.50;99.90;;;;;;5030992;28;20053;-81
2022/06/19 06:38:58;;;;;;;13.98;5.65;;;21.60;99.90;;;;;;5008662;28;20046;-80
2022/06/19 06:41:27;;;;;;;14.18;3.92;;;21.60;99.90;;;;;;5010996;28;20049;-80
2022/06/19 06:44:02;;;;;;;12.95;4.72;;;21.60;99.90;;;;;;5011101;28;20034;-79
2022/06/19 06:46:43;;;;;;;4.78;4.15;;;21.70;99.90;;;;;;5020859;28;20045;-80
2022/06/19 06:49:12;;;;;;;13.52;3.72;;;21.70;99.90;;;;;;5029301;28;20037;-81
2022/06/19 06:51:41;;;;;;;11.73;4.43;;;21.80;99.90;;;;;;5013133;28;20037;-80
2022/06/19 06:54:09;;;;;;;18.83;5.13;;;22.00;99.90;;;;;;5012401;28;20049;-81
2022/06/19 06:56:38;;;;;;;6.63;4.68;;;22.10;99.90;;;;;;5030863;28;20065;-82
2022/06/19 06:59:08;;;;;;;15.60;3.72;;;22.20;99.90;;;;;;5008625;28;20049;-83
2022/06/19 07:01:37;;;;;;;7.37;4.97;;;22.30;99.90;;;;;;5021002;28;20073;-82
2022/06/19 07:04:06;;;;;;;20.40;5.13;;;22.40;99.90;;;;;;5029848;28;20038;-82
2022/06/19 07:06:35;;;;;;;6.97;4.15;;;22.30;99.90;;;;;;5007472;28;20038;-82
2022/06/19 07:09:04;;;;;;;7.72;3.95;;;22.50;99.90;;;;;;4995834;28;20793;-83
2022/06/19 07:11:40;;;;;;;6.10;4.43;;;22.70;99.90;;;;;;4995040;28;20466;-81
2022/06/19 07:14:09;;;;;;;15.52;5.15;;;22.90;99.90;;;;;;5011695;28;20490;-82
2022/06/19 07:16:40;;;;;;;19.15;4.30;;;23.00;99.90;;;;;;4996904;28;20053;-81
2022/06/19 07:19:11;;;;;;;16.20;6.40;;;23.10;99.90;;;;;;5030315;28;20045;-81
2022/06/19 07:21:41;;;;;;;20.85;4.55;;;23.40;99.90;;;;;;5028807;28;20046;-81
2022/06/19 07:24:10;;;;;;;16.58;4.97;;;23.60;99.90;;;;;;5019497;28;20526;-81
2022/06/19 07:26:40;;;;;;;12.80;4.57;;;23.80;99.90;;;;;;4997905;28;20513;-81
2022/06/19 07:29:09;;;;;;;11.55;4.32;;;23.90;99.90;;;;;;5027120;28;20049;-81
2022/06/19 07:31:37;;;;;;;11.80;3.55;;;24.00;99.90;;;;;;5029321;28;20045;-83
2022/06/19 07:34:07;;;;;;;9.65;3.20;;;24.00;99.90;;;;;;4991282;28;20050;-83
2022/06/19 07:36:41;;;;;;;17.95;5.57;;;24.00;99.90;;;;;;5010173;28;20471;-83
2022/06/19 07:39:11;;;;;;;13.57;3.92;;;24.10;99.90;;;;;;4987522;28;20042;-82
2022/06/19 07:41:50;;;;;;;11.10;4.35;;;24.30;99.90;;;;;;5016155;28;20049;-81
2022/06/19 07:44:39;;;;;;;13.00;4.60;;;24.40;99.90;;;;;;4992496;28;20053;-81
2022/06/19 07:52:12;;;;;;;5.03;3.65;;;24.60;99.90;;;;;;4995590;28;20056;-82
2022/06/19 07:54:51;;;;;;;10.30;3.70;;;25.00;99.90;;;;;;5005553;28;20053;-82
2022/06/19 07:57:34;;;;;;;8.32;4.43;;;25.10;99.90;;;;;;4992506;28;20054;-81
2022/06/19 08:00:09;;;;;;;8.57;5.38;;;25.20;99.90;;;;;;4991696;28;20061;-83
2022/06/19 08:02:43;;;;;;;13.00;4.45;;;25.40;99.90;;;;;;5023952;28;20052;-85
2022/06/19 08:05:25;;;;;;;17.48;4.15;;;25.50;99.90;;;;;;4990994;28;20048;-82
2022/06/19 08:07:53;;;;;;;16.75;5.10;;;25.60;99.90;;;;;;4991418;28;20054;-79
2022/06/19 08:10:35;;;;;;;10.48;4.65;;;25.80;99.90;;;;;;4991657;28;20037;-81
2022/06/19 08:13:04;;;;;;;14.50;4.15;;;25.90;99.90;;;;;;4974952;28;20563;-81
2022/06/19 08:15:34;;;;;;;12.77;5.07;;;26.00;99.90;;;;;;4989959;28;20042;-80
2022/06/19 08:18:02;;;;;;;10.97;5.73;;;26.10;99.90;;;;;;4991338;28;20049;-80
2022/06/19 08:20:30;;;;;;;8.90;3.90;;;26.20;99.90;;;;;;5009734;28;20038;-80
2022/06/19 08:23:00;;;;;;;5.78;4.22;;;26.20;99.90;;;;;;4991868;28;20117;-80
2022/06/19 08:25:28;;;;;;;15.07;5.50;;;26.30;99.90;;;;;;4995586;28;20053;-80
2022/06/19 08:27:57;;;;;;;16.75;5.25;;;26.40;99.90;;;;;;5012143;28;20503;-80
2022/06/19 08:30:32;;;;;;;10.88;5.43;;;26.50;99.90;;;;;;4999412;28;20049;-80
2022/06/19 08:33:04;;;;;;;11.43;4.45;;;26.50;99.90;;;;;;5032380;28;20356;-80
2022/06/19 08:35:36;;;;;;;13.13;4.93;;;26.60;99.90;;;;;;5030065;28;20037;-80
2022/06/19 08:38:14;;;;;;;17.48;5.40;;;26.80;99.90;;;;;;5042245;28;20057;-81
2022/06/19 08:41:01;;;;;;;16.27;5.32;;;26.90;99.90;;;;;;5011796;28;20050;-80
2022/06/19 08:44:01;;;;;;;8.98;4.72;;;27.00;99.90;;;;;;5012212;28;20796;-80
2022/06/19 08:47:21;;;;;;;14.52;5.07;;;27.00;99.90;;;;;;5027822;28;20038;-80
2022/06/19 08:50:11;;;;;;;14.70;5.38;;;27.00;99.90;;;;;;5011358;28;20050;-80
2022/06/19 08:53:00;;;;;;;5.47;4.25;;;27.00;99.90;;;;;;4979209;28;20049;-81
2022/06/19 08:55:28;;;;;;;15.35;6.53;;;27.10;99.90;;;;;;4994711;28;20038;-80
2022/06/19 08:58:19;;;;;;;15.52;5.18;;;27.30;99.90;;;;;;5011542;28;20046;-80
2022/06/19 09:01:20;;;;;;;7.75;5.60;;;27.40;99.90;;;;;;5013340;28;20042;-80
2022/06/19 09:07:04;;;;;;;12.88;5.35;;;27.50;99.90;;;;;;5014035;28;20778;-80
2022/06/19 09:09:55;;;;;;;23.60;5.47;;;27.60;99.90;;;;;;5014944;28;20045;-80
2022/06/19 09:12:35;;;;;;;10.98;6.28;;;27.70;99.90;;;;;;5026696;28;20049;-81
2022/06/19 09:15:15;;;;;;;14.13;5.05;;;27.80;99.90;;;;;;5022520;28;20038;-80
2022/06/19 09:17:48;;;;;;;14.57;5.40;;;27.80;99.90;;;;;;5014536;28;20490;-80
2022/06/19 09:20:41;;;;;;;12.82;5.28;;;28.00;99.90;;;;;;5014126;28;20517;-80
2022/06/19 09:23:28;;;;;;;9.60;4.70;;;28.20;99.90;;;;;;5031617;28;20042;-80
2022/06/19 09:25:58;;;;;;;14.45;5.28;;;28.30;99.10;;;;;;5031453;28;20053;-81
2022/06/19 09:28:53;;;;;;;8.85;3.88;;;28.50;98.20;;;;;;5031655;28;20052;-81
2022/06/19 09:31:28;;;;;;;18.67;5.43;;;28.50;99.90;;;;;;5031870;28;20037;-81
2022/06/19 09:34:05;;;;;;;19.60;5.13;;;28.70;98.80;;;;;;5031091;28;20502;-81
2022/06/19 09:36:54;;;;;;;6.72;3.75;;;28.80;97.80;;;;;;5031988;28;20387;-80
2022/06/19 09:39:31;;;;;;;11.10;4.70;;;28.80;99.60;;;;;;5031412;28;20065;-80
2022/06/19 09:42:13;;;;;;;15.60;6.55;;;28.80;97.80;;;;;;5031115;28;20419;-80
2022/06/19 09:45:05;;;;;;;9.40;5.20;;;28.90;99.80;;;;;;5032453;28;20597;-79
2022/06/19 09:47:36;;;;;;;13.52;5.63;;;29.00;98.60;;;;;;5041024;28;20044;-80
2022/06/19 09:51:03;;;;;;;16.42;5.95;;;29.00;97.70;;;;;;5041179;28;20495;-80
2022/06/19 09:53:42;;;;;;;12.18;4.88;;;28.90;98.20;;;;;;5036564;28;20057;-80
2022/06/19 09:56:34;;;;;;;22.27;6.85;;;29.10;99.70;;;;;;5038836;28;20053;-80
2022/06/19 09:59:05;;;;;;;18.98;5.00;;;29.20;97.90;;;;;;5030985;28;20059;-79
2022/06/19 10:01:34;;;;;;;14.77;5.22;;;29.20;96.60;;;;;;5032043;28;20045;-80
2022/06/19 10:04:09;;;;;;;24.38;6.00;;;29.20;98.30;;;;;;5033807;28;20054;-80
2022/06/19 10:06:53;;;;;;;8.23;6.57;;;29.20;98.00;;;;;;5037161;28;20046;-80
2022/06/19 10:09:30;;;;;;;18.85;6.40;;;29.30;97.30;;;;;;5013502;28;20049;-80
2022/06/19 10:12:01;;;;;;;12.52;7.10;;;29.20;95.90;;;;;;5045603;28;20041;-80
2022/06/19 10:14:39;;;;;;;12.27;6.78;;;29.40;98.20;;;;;;5031173;28;20605;-80
2022/06/19 10:17:22;;;;;;;6.80;6.00;;;29.40;96.60;;;;;;5031331;28;20514;-80
2022/06/19 10:19:52;;;;;;;19.23;7.30;;;29.50;97.30;;;;;;5030549;28;20056;-80
2022/06/19 10:22:56;;;;;;;11.60;7.65;;;29.60;94.80;;;;;;5030484;28;20044;-80
2022/06/19 10:25:36;;;;;;;14.55;5.95;;;29.50;98.40;;;;;;5031350;28;20050;-81
2022/06/19 10:28:16;;;;;;;15.20;5.55;;;29.60;97.70;;;;;;5012045;28;20789;-80
2022/06/19 10:31:05;;;;;;;12.38;6.57;;;29.60;96.80;;;;;;5013277;28;20033;-80
2022/06/19 10:33:51;;;;;;;14.63;7.40;;;29.70;98.10;;;;;;5031011;28;20052;-80
2022/06/19 10:36:46;;;;;;;12.73;6.88;;;29.60;95.00;;;;;;5012466;28;20041;-80
2022/06/19 10:39:21;;;;;;;32.20;7.57;;;29.70;97.80;;;;;;5015964;28;20092;-80
2022/06/19 10:42:14;;;;;;;18.10;7.20;;;29.70;96.20;;;;;;5010683;28;20053;-80
2022/06/19 10:45:06;;;;;;;12.23;8.18;;;29.80;97.10;;;;;;4994182;28;20042;-82
2022/06/19 10:48:05;;;;;;;16.23;7.40;;;29.90;94.60;;;;;;5010181;28;20042;-81
2022/06/19 10:50:41;;;;;;;14.82;6.78;;;29.90;96.80;;;;;;5012740;28;20513;-79
2022/06/19 10:53:30;;;;;;;16.70;6.88;;;29.90;95.40;;;;;;5025787;28;20049;-81
2022/06/19 10:56:14;;;;;;;10.50;7.97;;;29.90;97.50;;;;;;5011617;28;20049;-78
2022/06/19 10:58:45;;;;;;;16.95;7.65;;;30.00;97.10;;;;;;5011605;28;20045;-79
2022/06/19 11:04:06;;;;;;;12.95;7.40;;;30.00;94.80;;;;;;5030473;28;20049;-77
2022/06/19 11:04:14;;;;;;;10.93;6.97;;;30.00;94.30;;;;;;5030200;28;20048;-76
2022/06/19 11:07:04;;;;;;;12.93;7.28;;;29.90;97.10;;;;;;5012036;28;20382;-75
2022/06/19 11:09:43;;;;;;;15.48;7.35;;;30.00;95.20;;;;;;5030144;28;20072;-77
2022/06/19 11:12:26;;;;;;;17.65;8.18;;;30.10;94.00;;;;;;5011232;28;20048;-76
2022/06/19 11:14:58;;;;;;;13.07;8.73;;;30.20;94.30;;;;;;5013085;28;20044;-77
2022/06/19 11:17:31;;;;;;;8.55;7.65;;;30.30;96.50;;;;;;5040269;28;20053;-77
2022/06/19 11:20:21;;;;;;;28.63;9.32;;;30.30;94.60;;;;;;5020057;28;20052;-78
2022/06/19 11:22:49;;;;;;;20.50;8.73;;;30.30;97.30;;;;;;5011983;28;20493;-78
2022/06/19 11:25:20;;;;;;;13.50;8.30;;;30.30;93.90;;;;;;5030301;28;20049;-78
2022/06/19 11:28:19;;;;;;;14.27;9.95;;;30.30;95.70;;;;;;5024512;28;20052;-78
2022/06/19 11:30:54;;;;;;;12.27;7.95;;;30.40;97.70;;;;;;4995072;28;20045;-78
2022/06/19 11:33:29;;;;;;;11.98;7.28;;;30.40;97.20;;;;;;5012683;28;20046;-78
2022/06/19 11:35:59;;;;;;;11.35;8.68;;;30.50;96.90;;;;;;5029621;28;20538;-78
2022/06/19 11:38:33;;;;;;;13.73;7.97;;;30.50;99.30;;;;;;5029394;28;20049;-79
2022/06/19 11:41:13;;;;;;;10.90;6.95;;;30.50;96.90;;;;;;5029464;28;20057;-79
2022/06/19 11:43:42;;;;;;;17.25;8.15;;;30.60;97.30;;;;;;5029425;28;20045;-78
2022/06/19 11:46:24;;;;;;;24.98;8.50;;;30.60;99.10;;;;;;5029624;28;20053;-79
2022/06/19 11:48:53;;;;;;;17.77;7.97;;;30.70;96.70;;;;;;5028867;28;20060;-78
2022/06/19 11:51:24;;;;;;;9.90;7.68;;;30.80;98.00;;;;;;5011600;28;20041;-77
2022/06/19 11:53:57;;;;;;;12.88;8.20;;;30.80;94.40;;;;;;5027996;28;20050;-79
2022/06/19 11:56:34;;;;;;;12.25;8.02;;;30.70;97.70;;;;;;5031987;28;20056;-78
2022/06/19 11:59:06;;;;;;;18.23;8.52;;;30.60;96.40;;;;;;5034856;28;20049;-78
2022/06/19 12:01:39;;;;;;;16.10;7.90;;;30.60;97.60;;;;;;4995770;28;20065;-78
2022/06/19 12:04:30;;;;;;;15.20;8.00;;;30.70;97.80;;;;;;5015194;28;20041;-78
2022/06/19 12:07:11;;;;;;;14.23;7.47;;;30.70;94.20;;;;;;5029698;28;20117;-79
2022/06/19 12:10:21;;;;;;;30.20;8.60;;;30.80;97.70;;;;;;5033351;28;20056;-79
2022/06/19 12:12:54;;;;;;;12.63;8.37;;;30.80;96.60;;;;;;5022463;28;20045;-78
2022/06/19 12:15:32;;;;;;;9.75;6.35;;;30.90;98.80;;;;;;5016151;28;20053;-78
2022/06/19 12:18:15;;;;;;;19.23;8.35;;;30.90;95.90;;;;;;5015326;28;20495;-78
2022/06/19 12:20:54;;;;;;;8.25;7.43;;;31.00;99.30;;;;;;5015579;28;20033;-78
2022/06/19 12:23:27;;;;;;;10.52;8.57;;;31.00;96.20;;;;;;5033350;28;20045;-78
2022/06/19 12:26:00;;;;;;;13.77;7.95;;;30.90;98.00;;;;;;5024304;28;20050;-78
2022/06/19 12:28:50;;;;;;;16.58;8.68;;;31.10;96.50;;;;;;5032912;28;20401;-78
2022/06/19 12:31:22;;;;;;;14.00;8.25;;;31.10;95.00;;;;;;5032768;28;20049;-78
2022/06/19 12:34:02;;;;;;;17.95;8.23;;;31.00;93.60;;;;;;5033234;28;20080;-79
2022/06/19 12:36:33;;;;;;;14.68;7.47;;;31.00;93.50;;;;;;5013338;28;20522;-78
2022/06/19 12:39:06;;;;;;;15.52;8.15;;;31.10;98.70;;;;;;5031841;28;20037;-78
2022/06/19 12:41:49;;;;;;;8.55;7.70;;;31.10;94.80;;;;;;5032922;28;20437;-78
2022/06/19 12:45:23;;;;;;;15.52;8.18;;;31.10;93.60;;;;;;5032141;28;20050;-78
2022/06/19 12:48:23;;;;;;;12.75;7.32;;;31.10;97.20;;;;;;5031277;28;20052;-79
2022/06/19 12:51:10;;;;;;;10.15;7.88;;;31.30;96.50;;;;;;5032541;28;20045;-78
2022/06/19 13:04:12;;;;;;;11.00;7.05;;;31.30;95.50;;;;;;5033971;28;20038;-78
2022/06/19 13:06:57;;;;;;;12.35;7.45;;;31.40;96.80;;;;;;5012303;28;20053;-78
2022/06/19 13:09:58;;;;;;;10.05;7.95;;;31.40;96.10;;;;;;5031415;28;20521;-78
2022/06/19 13:12:47;;;;;;;16.45;8.10;;;31.50;97.80;;;;;;5002450;28;20550;-78
2022/06/19 13:15:24;;;;;;;14.48;7.82;;;31.50;96.20;;;;;;5009702;28;20049;-78
2022/06/19 13:18:12;;;;;;;22.02;8.80;;;31.50;96.80;;;;;;5009774;28;20096;-79
2022/06/19 13:20:53;;;;;;;21.48;8.60;;;31.40;96.20;;;;;;5026241;28;20064;-78
2022/06/19 13:23:58;;;;;;;15.60;8.80;;;31.40;93.00;;;;;;5044043;28;20045;-78
2022/06/19 13:29:38;;;;;;;17.95;8.02;;;31.40;95.10;;;;;;5009989;28;20574;-78
2022/06/19 13:32:24;;;;;;;13.35;9.70;;;31.50;97.00;;;;;;4977169;28;20042;-78
2022/06/19 13:35:14;;;;;;;22.20;8.73;;;31.60;99.00;;;;;;5009475;28;20030;-78
2022/06/19 13:37:47;;;;;;;12.07;7.40;;;31.60;95.90;;;;;;5009292;28;20519;-78
2022/06/19 13:40:31;;;;;;;15.00;8.30;;;31.60;96.80;;;;;;5010104;28;20495;-79
2022/06/19 13:43:07;;;;;;;17.13;8.68;;;31.60;94.50;;;;;;5029213;28;20038;-78
2022/06/19 13:45:54;;;;;;;12.73;7.72;;;31.70;95.70;;;;;;5032126;28;20053;-79
2022/06/19 13:48:25;;;;;;;12.85;8.18;;;31.60;93.80;;;;;;5014059;28;20045;-77
2022/06/19 13:51:14;;;;;;;12.48;8.10;;;31.60;97.40;;;;;;5023953;28;20053;-79
2022/06/19 13:53:46;;;;;;;37.97;9.77;;;31.70;96.40;;;;;;5023599;28;20045;-78
2022/06/19 13:56:26;;;;;;;23.45;8.23;;;31.70;95.60;;;;;;5041811;28;20373;-77
2022/06/19 13:59:29;;;;;;;10.88;8.07;;;31.70;95.50;;;;;;5050846;28;20045;-78
2022/06/19 14:02:23;;;;;;;13.82;8.68;;;31.70;96.50;;;;;;5051488;28;20051;-78
2022/06/19 14:05:13;;;;;;;16.48;7.80;;;31.70;97.80;;;;;;5051787;28;20053;-78
2022/06/19 14:07:57;;;;;;;15.30;7.17;;;31.70;95.80;;;;;;5030962;28;20049;-78
2022/06/19 14:10:31;;;;;;;20.40;7.85;;;31.60;94.70;;;;;;5030888;28;20491;-78
2022/06/19 14:13:20;;;;;;;14.68;7.93;;;31.60;96.00;;;;;;5030779;28;20036;-77
2022/06/19 14:16:13;;;;;;;9.02;7.60;;;31.60;95.70;;;;;;5031270;28;20041;-78
2022/06/19 14:18:52;;;;;;;20.13;8.52;;;31.60;97.30;;;;;;5030711;28;20054;-77
2022/06/19 14:21:41;;;;;;;16.60;7.70;;;31.60;95.80;;;;;;5031081;28;20052;-78
2022/06/19 14:24:29;;;;;;;14.77;7.75;;;31.60;95.30;;;;;;5030760;28;20044;-78
2022/06/19 14:27:39;;;;;;;9.00;7.25;;;31.60;94.80;;;;;;5030427;28;20038;-78
2022/06/19 14:30:26;;;;;;;22.70;8.37;;;31.60;95.90;;;;;;5013035;28;20045;-79
2022/06/19 14:32:58;;;;;;;9.13;7.35;;;31.70;97.10;;;;;;5031179;28;20292;-78
2022/06/19 14:35:30;;;;;;;15.82;8.50;;;31.70;96.10;;;;;;5013138;28;20056;-78
2022/06/19 14:38:05;;;;;;;9.23;7.40;;;31.70;95.10;;;;;;5026179;28;20542;-79
2022/06/19 14:40:57;;;;;;;14.90;7.22;;;31.70;94.00;;;;;;5009800;28;20080;-78
2022/06/19 14:43:32;;;;;;;8.77;7.05;;;31.70;94.80;;;;;;4992507;28;20050;-79
2022/06/19 14:46:03;;;;;;;24.63;7.68;;;31.70;97.00;;;;;;5010652;28;20049;-78
2022/06/19 14:48:40;;;;;;;15.20;7.88;;;31.70;96.80;;;;;;5010643;28;20054;-78
2022/06/19 14:51:35;;;;;;;13.32;8.63;;;31.70;95.00;;;;;;5010646;28;20053;-78
2022/06/19 14:54:14;;;;;;;15.63;7.10;;;31.80;97.80;;;;;;4992934;28;20057;-79
2022/06/19 14:56:45;;;;;;;11.90;8.30;;;31.90;95.00;;;;;;5010484;28;20109;-78
2022/06/19 14:59:28;;;;;;;18.67;7.90;;;31.80;94.00;;;;;;5025318;28;20042;-78
2022/06/19 15:01:57;;;;;;;30.40;8.57;;;31.80;95.30;;;;;;5027620;28;20045;-79
2022/06/19 15:04:29;;;;;;;14.07;7.95;;;31.80;95.60;;;;;;5035179;28;20689;-79
2022/06/19 15:07:04;;;;;;;15.25;8.05;;;31.80;94.20;;;;;;5048492;28;20041;-78
2022/06/19 15:09:54;;;;;;;15.85;8.93;;;31.70;94.50;;;;;;5040097;28;20505;-78